createdAt,value
2018-04-06T00:00:33.570Z,1.60
2018-04-06T00:03:01.024Z,1.70
2018-04-06T00:05:28.561Z,1.80
2018-04-06T00:07:56.024Z,1.70
2018-04-06T00:10:23.776Z,1.70
2018-04-06T00:12:51.232Z,1.70
2018-04-06T00:15:18.692Z,1.70
2018-04-06T00:17:46.222Z,1.60
2018-04-06T00:20:14.232Z,1.60
2018-04-06T00:22:41.895Z,1.60
2018-04-06T00:25:10.116Z,1.60
2018-04-06T00:27:37.576Z,1.60
2018-04-06T00:30:05.035Z,1.50
2018-04-06T00:32:32.665Z,1.60
2018-04-06T00:35:00.890Z,1.60
2018-04-06T00:37:28.343Z,1.60
2018-04-06T00:39:55.800Z,1.60
2018-04-06T00:42:23.406Z,1.60
2018-04-06T00:44:50.951Z,1.50
2018-04-06T00:47:18.408Z,1.60
2018-04-06T00:49:45.876Z,1.50
2018-04-06T00:52:13.638Z,1.50
2018-04-06T00:54:41.093Z,1.50
2018-04-06T00:57:08.741Z,1.50
2018-04-06T00:59:36.191Z,1.50
2018-04-06T01:02:04.588Z,1.50
2018-04-06T01:04:32.112Z,1.50
2018-04-06T01:06:59.564Z,1.40
2018-04-06T01:09:27.029Z,1.40
2018-04-06T01:11:54.530Z,1.50
2018-04-06T01:14:21.983Z,1.40
2018-04-06T01:16:49.439Z,1.40
2018-04-06T01:19:16.900Z,1.40
2018-04-06T01:21:45.890Z,1.40
2018-04-06T01:24:13.342Z,1.40
2018-04-06T01:26:41.117Z,1.40
2018-04-06T01:29:08.578Z,1.40
2018-04-06T01:31:36.349Z,1.40
2018-04-06T01:34:03.826Z,1.40
2018-04-06T01:36:31.271Z,1.40
2018-04-06T01:38:58.724Z,1.40
2018-04-06T01:41:26.188Z,1.40
2018-04-06T01:43:53.651Z,1.40
2018-04-06T01:46:21.330Z,1.40
2018-04-06T01:48:48.854Z,1.40
2018-04-06T01:51:16.312Z,1.30
2018-04-06T01:53:43.780Z,1.20
2018-04-06T01:56:11.234Z,1.10
2018-04-06T01:58:38.701Z,1.10
2018-04-06T02:01:06.164Z,1.10
2018-04-06T02:03:33.614Z,1.00
2018-04-06T02:06:01.363Z,1.10
2018-04-06T02:08:28.841Z,1.10
2018-04-06T02:10:56.306Z,1.10
2018-04-06T02:13:23.959Z,1.10
2018-04-06T02:15:51.426Z,1.00
2018-04-06T02:18:19.644Z,0.90
2018-04-06T02:20:47.104Z,0.90
2018-04-06T02:23:14.564Z,0.90
2018-04-06T02:25:42.036Z,0.90
2018-04-06T02:28:09.623Z,0.90
2018-04-06T02:30:37.173Z,0.90
2018-04-06T02:33:04.636Z,0.90
2018-04-06T02:35:32.100Z,0.90
2018-04-06T02:37:59.564Z,0.80
2018-04-06T02:40:27.218Z,0.80
2018-04-06T02:42:55.644Z,0.80
2018-04-06T02:45:23.156Z,0.80
2018-04-06T02:47:50.618Z,0.70
2018-04-06T02:50:18.940Z,0.80
2018-04-06T02:52:46.405Z,0.70
2018-04-06T02:55:13.907Z,0.80
2018-04-06T02:57:41.380Z,0.80
2018-04-06T03:00:08.997Z,0.80
2018-04-06T03:02:36.453Z,0.70
2018-04-06T03:05:04.039Z,0.60
2018-04-06T03:07:31.603Z,0.70
2018-04-06T03:09:59.065Z,0.60
2018-04-06T03:12:26.527Z,0.60
2018-04-06T03:14:54.019Z,0.60
2018-04-06T03:17:22.220Z,0.50
2018-04-06T03:19:49.686Z,0.50
2018-04-06T03:22:17.170Z,0.50
2018-04-06T03:24:44.952Z,0.50
2018-04-06T03:27:12.417Z,0.50
2018-04-06T03:29:39.874Z,0.60
2018-04-06T03:32:07.331Z,0.50
2018-04-06T03:34:34.785Z,0.60
2018-04-06T03:37:02.379Z,0.50
2018-04-06T03:39:30.003Z,0.50
2018-04-06T03:41:57.675Z,0.50
2018-04-06T03:44:25.135Z,0.60
2018-04-06T03:46:52.590Z,0.50
2018-04-06T03:49:20.048Z,0.50
2018-04-06T03:51:47.508Z,0.50
2018-04-06T03:54:15.767Z,0.50
2018-04-06T03:56:43.227Z,0.50
2018-04-06T03:59:10.680Z,0.50
2018-04-06T04:01:38.139Z,0.30
2018-04-06T04:04:05.603Z,0.30
2018-04-06T04:06:33.845Z,0.30
2018-04-06T04:09:01.338Z,0.30
2018-04-06T04:11:29.000Z,0.30
2018-04-06T04:13:56.547Z,0.30
2018-04-06T04:16:24.012Z,0.30
2018-04-06T04:18:51.476Z,0.30
2018-04-06T04:21:18.945Z,0.30
2018-04-06T04:23:46.414Z,0.30
2018-04-06T04:26:14.153Z,0.30
2018-04-06T04:28:41.619Z,0.30
2018-04-06T04:31:09.087Z,0.30
2018-04-06T04:33:36.824Z,0.30
2018-04-06T04:36:04.284Z,0.30
2018-04-06T04:38:31.739Z,0.20
2018-04-06T04:40:59.198Z,0.30
2018-04-06T04:43:26.663Z,0.20
2018-04-06T04:45:54.124Z,0.20
2018-04-06T04:48:21.694Z,0.20
2018-04-06T04:50:49.158Z,0.20
2018-04-06T04:53:17.400Z,0.10
2018-04-06T04:55:44.884Z,0.20
2018-04-06T04:58:12.639Z,0.20
2018-04-06T05:00:40.092Z,0.20
2018-04-06T05:03:07.560Z,0.20
2018-04-06T05:05:35.032Z,0.20
2018-04-06T05:08:02.772Z,0.30
2018-04-06T05:10:30.235Z,0.30
2018-04-06T05:12:57.696Z,0.30
2018-04-06T05:15:25.367Z,0.30
2018-04-06T05:17:52.877Z,0.30
2018-04-06T05:20:20.332Z,0.30
2018-04-06T05:22:47.788Z,0.50
2018-04-06T05:25:15.259Z,0.50
2018-04-06T05:27:42.707Z,0.40
2018-04-06T05:30:10.172Z,0.40
2018-04-06T05:32:37.623Z,0.40
2018-04-06T05:35:05.089Z,0.40
2018-04-06T05:37:32.567Z,0.50
2018-04-06T05:40:00.352Z,0.50
2018-04-06T05:42:27.803Z,0.50
2018-04-06T05:44:55.267Z,0.60
2018-04-06T05:47:23.027Z,0.60
2018-04-06T05:49:50.787Z,0.70
2018-04-06T05:52:18.475Z,0.80
2018-04-06T05:54:45.931Z,0.80
2018-04-06T05:57:13.472Z,0.90
2018-04-06T05:59:40.928Z,0.90
2018-04-06T06:02:08.392Z,1.00
2018-04-06T06:04:35.959Z,1.00
2018-04-06T06:07:04.224Z,1.10
2018-04-06T06:09:31.689Z,1.20
2018-04-06T06:11:59.228Z,1.30
2018-04-06T06:14:26.818Z,1.30
2018-04-06T06:16:55.282Z,1.60
2018-04-06T06:19:22.751Z,1.50
2018-04-06T06:21:50.413Z,1.60
2018-04-06T06:24:17.914Z,1.70
2018-04-06T06:26:45.373Z,1.70
2018-04-06T06:29:12.893Z,1.70
2018-04-06T06:31:40.340Z,1.80
2018-04-06T06:34:08.212Z,1.90
2018-04-06T06:36:35.867Z,1.90
2018-04-06T06:39:03.329Z,2.00
2018-04-06T06:41:30.788Z,2.10
2018-04-06T06:43:58.250Z,2.10
2018-04-06T06:46:25.752Z,2.20
2018-04-06T06:48:53.419Z,2.30
2018-04-06T06:51:20.892Z,2.40
2018-04-06T06:53:48.383Z,2.50
2018-04-06T06:56:16.056Z,2.60
2018-04-06T06:58:43.532Z,2.70
2018-04-06T07:01:10.983Z,2.80
2018-04-06T07:03:38.435Z,2.90
2018-04-06T07:06:05.913Z,3.00
2018-04-06T07:08:33.366Z,3.00
2018-04-06T07:11:00.892Z,3.10
2018-04-06T07:13:28.564Z,3.20
2018-04-06T07:15:56.039Z,3.40
2018-04-06T07:18:23.537Z,3.50
2018-04-06T07:20:51.035Z,3.60
2018-04-06T07:23:18.508Z,3.60
2018-04-06T07:25:46.248Z,3.70
2018-04-06T07:28:13.711Z,3.80
2018-04-06T07:30:41.172Z,3.90
2018-04-06T07:33:08.645Z,4.00
2018-04-06T07:35:36.875Z,4.20
2018-04-06T07:38:04.363Z,4.30
2018-04-06T07:40:31.856Z,4.40
2018-04-06T07:42:59.390Z,4.50
2018-04-06T07:45:26.864Z,4.60
2018-04-06T07:47:54.776Z,4.70
2018-04-06T07:50:22.228Z,4.80
2018-04-06T07:52:49.687Z,4.90
2018-04-06T07:55:17.153Z,5.10
2018-04-06T07:57:44.636Z,5.10
2018-04-06T08:00:12.206Z,5.30
2018-04-06T08:02:39.872Z,5.30
2018-04-06T08:05:07.357Z,5.30
2018-04-06T08:07:34.812Z,5.50
2018-04-06T08:10:02.335Z,5.60
2018-04-06T08:12:29.793Z,5.60
2018-04-06T08:14:57.260Z,5.80
2018-04-06T08:17:25.024Z,5.90
2018-04-06T08:19:52.476Z,6.00
2018-04-06T08:22:20.248Z,6.00
2018-04-06T08:24:47.713Z,6.10
2018-04-06T08:27:15.469Z,6.20
2018-04-06T08:29:43.024Z,6.30
2018-04-06T08:32:10.689Z,6.50
2018-04-06T08:34:38.152Z,6.60
2018-04-06T08:37:05.617Z,6.70
2018-04-06T08:39:33.377Z,6.80
2018-04-06T08:42:00.847Z,6.90
2018-04-06T08:44:28.499Z,7.00
2018-04-06T08:46:56.048Z,7.10
2018-04-06T08:49:23.504Z,7.20
2018-04-06T08:51:51.288Z,7.30
2018-04-06T08:54:18.951Z,7.40
2018-04-06T08:56:46.404Z,7.60
2018-04-06T08:59:13.856Z,7.60
2018-04-06T09:01:41.320Z,7.70
2018-04-06T09:04:08.792Z,8.00
2018-04-06T09:06:36.252Z,8.10
2018-04-06T09:09:03.925Z,8.30
2018-04-06T09:11:31.402Z,8.70
2018-04-06T09:13:58.968Z,10.50
2018-04-06T09:16:26.433Z,13.30
2018-04-06T09:18:53.951Z,15.80
2018-04-06T09:21:21.416Z,17.30
2018-04-06T09:23:48.879Z,18.30
2018-04-06T09:26:16.500Z,19.50
2018-04-06T09:28:43.964Z,20.50
2018-04-06T09:31:11.462Z,20.70
2018-04-06T09:33:38.925Z,20.50
2018-04-06T09:36:06.383Z,20.40
2018-04-06T09:38:33.863Z,19.70
2018-04-06T09:41:01.316Z,19.30
2018-04-06T09:43:28.784Z,20.00
2018-04-06T09:45:56.254Z,20.80
2018-04-06T09:48:23.732Z,21.20
2018-04-06T09:50:51.488Z,21.20
2018-04-06T09:53:18.967Z,22.20
2018-04-06T09:55:46.416Z,22.20
2018-04-06T09:58:13.885Z,21.90
2018-04-06T10:00:41.377Z,21.40
2018-04-06T10:03:08.941Z,22.10
2018-04-06T10:05:36.396Z,23.30
2018-04-06T10:08:04.164Z,23.80
2018-04-06T10:10:31.786Z,23.40
2018-04-06T10:12:59.695Z,23.60
2018-04-06T10:15:27.171Z,23.20
2018-04-06T10:17:54.620Z,22.70
2018-04-06T10:20:22.071Z,22.80
2018-04-06T10:22:49.627Z,23.20
2018-04-06T10:25:17.104Z,23.60
2018-04-06T10:27:44.561Z,23.60
2018-04-06T10:30:12.040Z,23.10
2018-04-06T10:32:39.506Z,23.00
2018-04-06T10:35:06.965Z,22.50
2018-04-06T10:37:34.421Z,22.60
2018-04-06T10:40:02.196Z,23.50
2018-04-06T10:42:29.655Z,23.10
2018-04-06T10:44:57.311Z,23.00
2018-04-06T10:47:24.785Z,23.20
2018-04-06T10:49:52.331Z,23.60
2018-04-06T10:52:20.100Z,24.60
2018-04-06T10:54:47.858Z,24.70
2018-04-06T10:57:15.331Z,24.00
2018-04-06T10:59:43.086Z,24.40
2018-04-06T11:02:10.545Z,24.30
2018-04-06T11:04:38.005Z,24.30
2018-04-06T11:07:05.760Z,24.80
2018-04-06T11:09:33.528Z,24.10
2018-04-06T11:12:01.004Z,24.90
2018-04-06T11:14:28.455Z,24.80
2018-04-06T11:16:55.920Z,25.90
2018-04-06T11:19:23.674Z,25.10
2018-04-06T11:21:51.128Z,24.80
2018-04-06T11:24:18.592Z,25.40
2018-04-06T11:26:46.350Z,25.90
2018-04-06T11:29:13.812Z,25.70
2018-04-06T11:31:41.570Z,26.40
2018-04-06T11:34:09.032Z,27.10
2018-04-06T11:36:36.793Z,27.70
2018-04-06T11:39:04.255Z,27.10
2018-04-06T11:41:32.475Z,26.30
2018-04-06T11:44:00.022Z,26.30
2018-04-06T11:46:27.479Z,26.80
2018-04-06T11:48:54.940Z,26.60
2018-04-06T11:51:22.403Z,27.10
2018-04-06T11:53:49.856Z,26.90
2018-04-06T11:56:17.340Z,27.40
2018-04-06T11:58:44.796Z,27.00
2018-04-06T12:01:12.372Z,26.30
2018-04-06T12:03:39.836Z,26.70
2018-04-06T12:06:07.291Z,27.60
2018-04-06T12:08:34.982Z,27.50
2018-04-06T12:11:02.447Z,28.20
2018-04-06T12:13:29.916Z,27.80
2018-04-06T12:15:57.377Z,27.60
2018-04-06T12:18:24.828Z,28.20
2018-04-06T12:20:52.326Z,28.00
2018-04-06T12:23:19.808Z,28.00
2018-04-06T12:25:47.489Z,28.50
2018-04-06T12:28:14.972Z,28.80
2018-04-06T12:30:43.183Z,29.40
2018-04-06T12:33:10.648Z,29.40
2018-04-06T12:35:38.252Z,29.30
2018-04-06T12:38:05.736Z,28.70
2018-04-06T12:40:33.469Z,28.00
2018-04-06T12:43:00.941Z,27.90
2018-04-06T12:45:28.692Z,28.30
2018-04-06T12:47:56.163Z,26.90
2018-04-06T12:50:23.981Z,27.00
2018-04-06T12:52:51.453Z,27.50
2018-04-06T12:55:18.941Z,27.90
2018-04-06T12:57:46.398Z,28.10
2018-04-06T13:00:14.091Z,27.70
2018-04-06T13:02:42.333Z,26.90
2018-04-06T13:05:09.784Z,27.00
2018-04-06T13:07:37.288Z,27.10
2018-04-06T13:10:04.813Z,26.60
2018-04-06T13:12:32.573Z,27.30
2018-04-06T13:15:00.028Z,28.10
2018-04-06T13:17:27.520Z,28.40
2018-04-06T13:19:54.982Z,27.40
2018-04-06T13:22:22.717Z,27.00
2018-04-06T13:24:50.175Z,27.30
2018-04-06T13:27:17.941Z,27.80
2018-04-06T13:29:45.420Z,27.70
2018-04-06T13:32:12.908Z,26.80
2018-04-06T13:34:40.621Z,26.40
2018-04-06T13:37:08.131Z,26.30
2018-04-06T13:39:35.652Z,26.70
2018-04-06T13:42:03.117Z,27.90
2018-04-06T13:44:31.345Z,28.30
2018-04-06T13:46:58.840Z,28.20
2018-04-06T13:49:26.295Z,27.30
2018-04-06T13:51:53.967Z,26.60
2018-04-06T13:54:21.431Z,26.50
2018-04-06T13:56:48.972Z,27.30
2018-04-06T13:59:16.440Z,26.70
2018-04-06T14:01:44.199Z,27.20
2018-04-06T14:04:11.652Z,27.30
2018-04-06T14:06:39.123Z,26.60
2018-04-06T14:09:06.876Z,25.80
2018-04-06T14:11:34.348Z,25.80
2018-04-06T14:14:01.801Z,26.10
2018-04-06T14:16:29.269Z,26.60
2018-04-06T14:18:56.744Z,26.80
2018-04-06T14:21:24.402Z,27.20
2018-04-06T14:23:51.929Z,27.30
2018-04-06T14:26:19.387Z,26.10
2018-04-06T14:28:47.148Z,24.60
2018-04-06T14:31:14.662Z,24.40
2018-04-06T14:33:42.372Z,23.90
2018-04-06T14:36:10.135Z,23.80
2018-04-06T14:38:37.685Z,23.70
2018-04-06T14:41:05.364Z,23.70
2018-04-06T14:43:32.870Z,23.40
2018-04-06T14:46:00.336Z,22.90
2018-04-06T14:48:27.794Z,22.70
2018-04-06T14:50:55.251Z,22.60
2018-04-06T14:53:22.880Z,22.50
2018-04-06T14:55:50.416Z,22.60
2018-04-06T14:58:17.888Z,22.70
2018-04-06T15:00:45.555Z,22.10
2018-04-06T15:03:13.053Z,22.00
2018-04-06T15:05:40.499Z,22.30
2018-04-06T15:08:07.967Z,22.20
2018-04-06T15:10:35.454Z,22.20
2018-04-06T15:13:02.909Z,23.00
2018-04-06T15:15:30.368Z,23.30
2018-04-06T15:17:57.831Z,23.40
2018-04-06T15:20:25.282Z,22.80
2018-04-06T15:22:52.749Z,22.50
2018-04-06T15:25:20.220Z,22.90
2018-04-06T15:27:47.988Z,22.90
2018-04-06T15:30:15.672Z,22.20
2018-04-06T15:32:43.902Z,22.40
2018-04-06T15:35:11.358Z,22.40
2018-04-06T15:37:38.840Z,22.70
2018-04-06T15:40:06.301Z,23.10
2018-04-06T15:42:34.795Z,23.50
2018-04-06T15:45:02.292Z,23.70
2018-04-06T15:47:29.752Z,23.70
2018-04-06T15:49:57.278Z,23.70
2018-04-06T15:52:25.024Z,24.20
2018-04-06T15:54:52.491Z,24.20
2018-04-06T15:57:20.182Z,24.20
2018-04-06T15:59:48.321Z,23.40
2018-04-06T16:02:15.779Z,23.30
2018-04-06T16:04:43.242Z,22.80
2018-04-06T16:07:11.699Z,22.20
2018-04-06T16:09:39.380Z,21.90
2018-04-06T16:12:06.837Z,21.90
2018-04-06T16:14:34.303Z,22.00
2018-04-06T16:17:01.800Z,21.70
2018-04-06T16:19:29.224Z,21.50
2018-04-06T16:21:56.688Z,20.90
2018-04-06T16:24:24.351Z,20.80
2018-04-06T16:26:51.819Z,21.00
2018-04-06T16:29:19.281Z,20.70
2018-04-06T16:31:46.813Z,20.20
2018-04-06T16:34:14.307Z,19.60
2018-04-06T16:36:42.032Z,19.60
2018-04-06T16:39:10.999Z,19.80
2018-04-06T16:41:38.467Z,19.80
2018-04-06T16:44:05.929Z,20.20
2018-04-06T16:46:33.388Z,20.60
2018-04-06T16:49:00.857Z,21.00
2018-04-06T16:51:28.341Z,21.10
2018-04-06T16:53:56.570Z,20.30
2018-04-06T16:56:24.159Z,20.30
2018-04-06T16:58:51.617Z,19.70
2018-04-06T17:01:19.078Z,19.40
2018-04-06T17:03:48.043Z,18.90
2018-04-06T17:06:15.504Z,18.90
2018-04-06T17:08:42.960Z,18.30
2018-04-06T17:11:10.627Z,18.10
2018-04-06T17:13:38.209Z,18.10
2018-04-06T17:16:07.176Z,17.50
2018-04-06T17:18:34.636Z,17.60
2018-04-06T17:21:02.101Z,17.40
2018-04-06T17:23:29.565Z,17.30
2018-04-06T17:25:57.044Z,17.20
2018-04-06T17:28:24.496Z,17.10
2018-04-06T17:30:52.745Z,17.10
2018-04-06T17:33:20.322Z,17.00
2018-04-06T17:35:47.956Z,17.00
2018-04-06T17:38:15.424Z,16.90
2018-04-06T17:40:43.013Z,16.80
2018-04-06T17:43:11.980Z,16.70
2018-04-06T17:45:39.448Z,16.70
2018-04-06T17:48:06.923Z,16.70
2018-04-06T17:50:35.889Z,16.40
2018-04-06T17:53:03.348Z,16.50
2018-04-06T17:55:30.833Z,16.40
2018-04-06T17:57:58.626Z,16.40
2018-04-06T18:00:26.969Z,16.20
2018-04-06T18:02:54.738Z,16.20
2018-04-06T18:05:22.226Z,16.10
2018-04-06T18:07:49.684Z,16.00
2018-04-06T18:10:17.420Z,15.90
2018-04-06T18:12:45.189Z,15.80
2018-04-06T18:15:12.648Z,15.70
2018-04-06T18:17:40.412Z,15.60
2018-04-06T18:20:07.868Z,15.50
2018-04-06T18:22:35.328Z,15.30
2018-04-06T18:25:03.085Z,15.20
2018-04-06T18:27:30.553Z,15.10
2018-04-06T18:29:58.024Z,15.10
2018-04-06T18:32:25.767Z,14.90
2018-04-06T18:34:53.538Z,14.80
2018-04-06T18:37:21.229Z,14.80
2018-04-06T18:39:48.688Z,14.60
2018-04-06T18:42:16.159Z,14.50
2018-04-06T18:44:43.709Z,14.50
2018-04-06T18:47:11.135Z,14.40
2018-04-06T18:49:38.613Z,14.30
2018-04-06T18:52:06.116Z,14.30
2018-04-06T18:54:33.724Z,14.20
2018-04-06T18:57:01.196Z,14.10
2018-04-06T18:59:28.673Z,14.10
2018-04-06T19:01:56.132Z,14.00
2018-04-06T19:04:23.584Z,13.90
2018-04-06T19:06:51.056Z,13.80
2018-04-06T19:09:18.519Z,13.70
2018-04-06T19:11:46.021Z,13.70
2018-04-06T19:14:13.479Z,13.60
2018-04-06T19:16:40.952Z,13.50
2018-04-06T19:19:08.407Z,13.50
2018-04-06T19:21:36.160Z,13.50
2018-04-06T19:24:03.928Z,13.50
2018-04-06T19:26:31.416Z,13.40
2018-04-06T19:28:59.150Z,13.20
2018-04-06T19:31:26.827Z,13.20
2018-04-06T19:33:54.303Z,13.20
2018-04-06T19:36:21.763Z,13.20
2018-04-06T19:38:49.288Z,13.10
2018-04-06T19:41:17.049Z,13.00
2018-04-06T19:43:44.531Z,12.90
2018-04-06T19:46:12.190Z,12.90
2018-04-06T19:48:39.648Z,12.90
2018-04-06T19:51:07.192Z,12.90
2018-04-06T19:53:34.864Z,12.80
2018-04-06T19:56:02.332Z,12.70
2018-04-06T19:58:29.796Z,12.70
2018-04-06T20:00:57.264Z,12.60
2018-04-06T20:03:24.733Z,12.60
2018-04-06T20:05:52.196Z,12.50
2018-04-06T20:08:19.657Z,12.50
2018-04-06T20:10:47.118Z,12.50
2018-04-06T20:13:14.571Z,12.40
2018-04-06T20:15:42.047Z,12.40
2018-04-06T20:18:09.519Z,12.40
2018-04-06T20:20:36.975Z,12.30
2018-04-06T20:23:04.427Z,12.30
2018-04-06T20:25:31.912Z,12.20
2018-04-06T20:27:59.680Z,12.20
2018-04-06T20:30:27.140Z,12.20
2018-04-06T20:32:54.608Z,12.10
2018-04-06T20:35:22.076Z,12.10
2018-04-06T20:37:49.531Z,12.00
2018-04-06T20:40:16.999Z,11.80
2018-04-06T20:42:44.728Z,11.80
2018-04-06T20:45:12.200Z,11.80
2018-04-06T20:47:39.659Z,11.80
2018-04-06T20:50:07.288Z,11.70
2018-04-06T20:52:34.867Z,11.70
2018-04-06T20:55:02.628Z,11.70
2018-04-06T20:57:30.092Z,11.60
2018-04-06T20:59:57.860Z,11.60
2018-04-06T21:02:25.537Z,11.50
2018-04-06T21:04:52.991Z,11.40
2018-04-06T21:07:20.456Z,11.40
2018-04-06T21:09:47.914Z,11.30
2018-04-06T21:12:15.377Z,11.30
2018-04-06T21:14:42.912Z,11.30
2018-04-06T21:17:10.372Z,11.20
2018-04-06T21:19:38.133Z,11.20
2018-04-06T21:22:05.608Z,11.20
2018-04-06T21:24:33.184Z,11.20
2018-04-06T21:27:01.412Z,11.10
2018-04-06T21:29:28.993Z,11.10
2018-04-06T21:31:56.454Z,11.00
2018-04-06T21:34:23.912Z,11.00
2018-04-06T21:36:51.439Z,10.90
2018-04-06T21:39:18.943Z,10.90
2018-04-06T21:41:46.484Z,10.80
2018-04-06T21:44:14.250Z,10.70
2018-04-06T21:46:41.723Z,10.80
2018-04-06T21:49:09.476Z,10.70
2018-04-06T21:51:36.936Z,10.70
2018-04-06T21:54:04.619Z,10.70
2018-04-06T21:56:32.083Z,10.70
2018-04-06T21:58:59.552Z,10.60
2018-04-06T22:01:27.039Z,10.60
2018-04-06T22:03:54.527Z,10.50
2018-04-06T22:06:21.988Z,10.50
2018-04-06T22:08:49.748Z,10.40
2018-04-06T22:11:17.511Z,10.40
2018-04-06T22:13:44.971Z,10.30
2018-04-06T22:16:12.740Z,10.30
2018-04-06T22:18:40.206Z,10.30
2018-04-06T22:21:07.883Z,10.30
2018-04-06T22:23:35.361Z,10.20
2018-04-06T22:26:02.886Z,10.10
2018-04-06T22:28:30.407Z,10.10
2018-04-06T22:30:58.020Z,10.10
2018-04-06T22:33:25.496Z,10.00
2018-04-06T22:35:53.021Z,10.00
2018-04-06T22:38:20.480Z,10.00
2018-04-06T22:40:47.954Z,9.90
2018-04-06T22:43:15.423Z,9.80
2018-04-06T22:45:43.073Z,9.70
2018-04-06T22:48:11.318Z,9.50
2018-04-06T22:50:38.992Z,9.60
2018-04-06T22:53:06.522Z,9.50
2018-04-06T22:55:33.943Z,9.50
2018-04-06T22:58:01.681Z,9.50
2018-04-06T23:00:29.143Z,9.40
2018-04-06T23:02:56.792Z,9.30
2018-04-06T23:05:24.249Z,9.30
2018-04-06T23:07:51.768Z,9.30
2018-04-06T23:10:19.269Z,9.30
2018-04-06T23:12:46.764Z,9.30
2018-04-06T23:15:14.257Z,9.20
2018-04-06T23:17:41.956Z,9.10
2018-04-06T23:20:09.417Z,8.80
2018-04-06T23:22:37.176Z,8.90
2018-04-06T23:25:04.644Z,8.80
2018-04-06T23:27:32.103Z,8.90
2018-04-06T23:29:59.855Z,9.00
2018-04-06T23:32:27.324Z,9.10
2018-04-06T23:34:54.780Z,9.10
2018-04-06T23:37:22.248Z,9.10
2018-04-06T23:39:49.859Z,9.10
2018-04-06T23:42:17.765Z,9.10
2018-04-06T23:44:45.529Z,9.20
2018-04-06T23:47:12.983Z,9.10
2018-04-06T23:49:40.449Z,9.10
2018-04-06T23:52:08.033Z,9.10
2018-04-06T23:54:35.659Z,9.10
2018-04-06T23:57:03.135Z,9.10
2018-04-06T23:59:30.884Z,9.00
